Time;durP1;ratioP1;P1;durP2;ratioP2;P2;SDS_P1;SDS_P2;PMS_P1;PMS_P2;Temp;Humidity;BMP_temperature;BMP_pressure;BME280_temperature;BME280_humidity;BME280_pressure;Samples;Min_cycle;Max_cycle;Signal;HPM_P1;HPM_P2
2022/01/22 00:00:21;;;;;;;305.48;137.93;;;-2.30;99.90;;;;;;5096738;28;20063;-80
2022/01/22 00:02:50;;;;;;;257.40;119.13;;;-2.10;99.90;;;;;;5096555;28;20119;-80
2022/01/22 00:05:19;;;;;;;243.55;114.15;;;-2.10;99.90;;;;;;5096818;28;20123;-81
2022/01/22 00:07:48;;;;;;;243.60;110.43;;;-2.00;99.90;;;;;;5096379;28;20123;-79
2022/01/22 00:10:19;;;;;;;251.20;118.40;;;-2.00;99.90;;;;;;5096482;28;20097;-78
2022/01/22 00:13:07;;;;;;;272.15;124.50;;;-2.10;99.90;;;;;;5095057;28;20069;-80
2022/01/22 00:15:41;;;;;;;266.67;120.75;;;-2.10;99.90;;;;;;5096062;28;20411;-78
2022/01/22 00:18:09;;;;;;;263.83;122.47;;;-2.00;99.90;;;;;;5094851;28;20070;-80
2022/01/22 00:20:36;;;;;;;273.83;125.75;;;-2.00;99.90;;;;;;5095671;28;20071;-79
2022/01/22 00:23:04;;;;;;;253.70;119.40;;;-2.10;99.90;;;;;;5096198;28;20048;-80
2022/01/22 00:25:36;;;;;;;252.85;113.20;;;-2.10;99.90;;;;;;5095612;28;20521;-78
2022/01/22 00:28:04;;;;;;;244.73;112.63;;;-2.00;99.90;;;;;;5096715;28;20136;-81
2022/01/22 00:30:31;;;;;;;253.68;116.03;;;-2.00;99.90;;;;;;5096737;28;20502;-81
2022/01/22 00:33:00;;;;;;;250.25;116.78;;;-2.00;99.90;;;;;;5096126;28;20040;-81
2022/01/22 00:35:28;;;;;;;261.52;123.47;;;-2.10;99.90;;;;;;5096983;28;20043;-79
2022/01/22 00:37:56;;;;;;;246.27;118.20;;;-2.10;99.90;;;;;;5100835;28;20042;-79
2022/01/22 00:40:24;;;;;;;232.85;111.75;;;-2.10;99.90;;;;;;5100542;28;20402;-79
2022/01/22 00:42:51;;;;;;;225.50;107.18;;;-2.00;99.90;;;;;;5100004;28;20100;-79
2022/01/22 00:45:20;;;;;;;277.80;128.02;;;-2.00;99.90;;;;;;5098561;28;20499;-81
2022/01/22 00:47:48;;;;;;;247.70;112.40;;;-1.90;99.90;;;;;;5098039;28;20418;-79
2022/01/22 00:50:20;;;;;;;229.57;109.05;;;-1.70;99.90;;;;;;5100224;28;20064;-79
2022/01/22 00:52:48;;;;;;;218.00;103.10;;;-1.70;99.90;;;;;;5097620;28;20491;-81
2022/01/22 00:55:16;;;;;;;219.88;102.13;;;-1.90;99.90;;;;;;5099005;28;20071;-79
2022/01/22 00:57:44;;;;;;;230.77;104.95;;;-1.80;99.90;;;;;;5099164;28;20076;-79
2022/01/22 01:00:15;;;;;;;204.10;98.03;;;-1.90;99.90;;;;;;5098603;28;20089;-79
2022/01/22 01:02:43;;;;;;;180.45;88.32;;;-1.90;99.90;;;;;;5097476;28;20098;-80
2022/01/22 01:05:13;;;;;;;194.23;94.95;;;-1.90;99.90;;;;;;5099116;28;20044;-80
2022/01/22 01:07:42;;;;;;;209.15;99.97;;;-2.00;99.90;;;;;;5101384;28;20434;-79
2022/01/22 01:10:14;;;;;;;216.32;102.80;;;-1.80;99.90;;;;;;5103317;28;20050;-80
2022/01/22 01:12:43;;;;;;;206.10;97.88;;;-1.90;99.90;;;;;;5101204;28;20054;-82
2022/01/22 01:15:22;;;;;;;211.50;101.97;;;-1.90;99.90;;;;;;5098414;28;20048;-78
2022/01/22 01:32:07;;;;;;;202.68;99.32;;;-1.90;99.90;;;;;;5097852;28;20052;-79
2022/01/22 01:34:51;;;;;;;210.38;101.50;;;-1.80;99.90;;;;;;5037316;28;20108;-81
2022/01/22 01:37:20;;;;;;;208.77;101.13;;;-1.70;99.90;;;;;;5031546;28;20053;-80
2022/01/22 01:39:55;;;;;;;199.35;98.15;;;-1.60;99.90;;;;;;5018807;28;20033;-82
2022/01/22 01:42:30;;;;;;;217.52;104.75;;;-1.50;99.90;;;;;;5015852;28;20425;-81
2022/01/22 01:45:01;;;;;;;245.52;116.05;;;-1.40;99.90;;;;;;5004666;28;20188;-80
2022/01/22 01:47:38;;;;;;;215.75;103.32;;;-1.40;99.90;;;;;;5000787;28;20144;-81
2022/01/22 01:50:06;;;;;;;210.98;103.75;;;-1.40;99.90;;;;;;4999099;28;20054;-82
2022/01/22 01:52:42;;;;;;;221.57;104.63;;;-1.30;99.90;;;;;;5009128;28;20141;-82
2022/01/22 01:55:15;;;;;;;229.55;111.30;;;-1.20;99.90;;;;;;4982547;28;20080;-82
2022/01/22 01:57:43;;;;;;;224.50;112.68;;;-1.20;99.90;;;;;;4984132;28;20049;-80
2022/01/22 02:00:21;;;;;;;232.73;109.07;;;-1.30;99.90;;;;;;5001211;28;20070;-82
2022/01/22 02:02:54;;;;;;;218.55;109.05;;;-1.30;99.90;;;;;;5011186;28;20045;-80
2022/01/22 02:05:25;;;;;;;225.00;110.97;;;-1.30;99.90;;;;;;5010194;28;20042;-81
2022/01/22 02:08:00;;;;;;;226.05;109.75;;;-1.50;99.90;;;;;;5024479;28;20045;-81
2022/01/22 02:11:00;;;;;;;221.05;107.07;;;-1.60;99.90;;;;;;5104553;28;20518;-81
2022/01/22 02:14:03;;;;;;;243.00;114.18;;;-1.70;99.90;;;;;;5114276;28;20058;-81
2022/01/22 02:25:14;;;;;;;241.60;112.00;;;-1.90;99.90;;;;;;5101091;28;20121;-82
2022/01/22 02:27:42;;;;;;;241.73;111.63;;;-1.90;99.90;;;;;;5100850;28;20056;-81
2022/01/22 02:30:19;;;;;;;248.00;113.57;;;-2.00;99.90;;;;;;5099581;28;20464;-82
2022/01/22 02:33:22;;;;;;;230.32;111.53;;;-2.10;99.90;;;;;;5098499;28;20040;-81
2022/01/22 02:35:55;;;;;;;240.55;114.60;;;-2.10;99.90;;;;;;5096613;28;20043;-82
2022/01/22 02:38:33;;;;;;;240.77;112.80;;;-2.20;99.90;;;;;;5089172;28;20058;-82
2022/01/22 02:41:00;;;;;;;275.40;127.32;;;-2.30;99.90;;;;;;5095126;28;20040;-82
2022/01/22 02:43:32;;;;;;;292.67;133.18;;;-2.30;99.90;;;;;;5098365;28;20059;-81
2022/01/22 02:46:01;;;;;;;263.27;122.55;;;-2.30;99.90;;;;;;5096317;28;20048;-82
2022/01/22 02:48:29;;;;;;;243.18;114.75;;;-2.40;99.90;;;;;;5096752;28;20054;-81
2022/01/22 02:50:56;;;;;;;245.75;113.63;;;-2.40;99.90;;;;;;5098589;28;20071;-80
2022/01/22 02:53:25;;;;;;;243.15;112.80;;;-2.40;99.90;;;;;;5097306;28;20559;-82
2022/01/22 02:55:54;;;;;;;220.57;102.63;;;-2.30;99.90;;;;;;5097791;28;20056;-81
2022/01/22 02:58:21;;;;;;;219.70;98.65;;;-2.30;99.90;;;;;;5108489;28;20036;-79
2022/01/22 03:00:49;;;;;;;252.75;110.82;;;-2.30;99.90;;;;;;5111882;28;20119;-81
2022/01/22 03:03:20;;;;;;;255.50;116.55;;;-2.20;99.90;;;;;;5110604;28;20066;-80
2022/01/22 03:05:48;;;;;;;216.57;101.60;;;-2.20;99.90;;;;;;5113358;28;20102;-80
2022/01/22 03:08:15;;;;;;;228.00;105.68;;;-2.30;99.90;;;;;;5113142;28;20066;-80
2022/01/22 03:10:49;;;;;;;224.95;103.07;;;-2.40;99.90;;;;;;5111515;28;20070;-80
2022/01/22 03:16:09;;;;;;;215.02;101.55;;;-2.40;99.90;;;;;;5070057;28;20474;-81
2022/01/22 03:18:44;;;;;;;;;;;-2.50;99.90;;;;;;5105901;28;20491;-82
2022/01/22 03:21:27;;;;;;;250.02;121.97;;;-2.50;99.90;;;;;;5105117;28;20015;-81
2022/01/22 03:29:35;;;;;;;199.75;109.72;;;-2.80;99.90;;;;;;5108294;28;20048;-80
2022/01/22 03:32:05;;;;;;;194.35;102.82;;;-2.90;99.90;;;;;;5114718;28;20047;-80
2022/01/22 03:34:39;;;;;;;192.98;103.68;;;-3.00;99.90;;;;;;5110106;28;20062;-80
2022/01/22 03:37:07;;;;;;;183.02;96.55;;;-3.00;99.90;;;;;;5105459;28;20071;-80
2022/01/22 03:39:35;;;;;;;169.20;90.82;;;-3.00;99.90;;;;;;5106094;28;20071;-80
2022/01/22 03:42:05;;;;;;;152.73;84.95;;;-3.10;99.90;;;;;;5108315;28;20066;-81
2022/01/22 03:44:33;;;;;;;157.32;85.05;;;-3.20;99.90;;;;;;5110598;28;20107;-79
2022/01/22 03:47:02;;;;;;;173.82;91.78;;;-3.20;99.90;;;;;;5108166;28;20050;-81
2022/01/22 03:49:30;;;;;;;153.73;83.68;;;-3.40;99.90;;;;;;5106622;28;20063;-79
2022/01/22 03:51:57;;;;;;;161.45;86.05;;;-3.40;99.90;;;;;;5104232;28;20071;-81
2022/01/22 03:54:25;;;;;;;155.15;82.50;;;-3.50;99.90;;;;;;5098027;28;20048;-82
2022/01/22 03:56:53;;;;;;;154.00;79.97;;;-3.60;99.90;;;;;;5094105;28;20048;-81
2022/01/22 03:59:47;;;;;;;155.40;85.25;;;-3.60;99.90;;;;;;5089177;28;20060;-81
2022/01/22 04:05:08;;;;;;;161.68;86.78;;;-3.60;99.90;;;;;;5098976;28;20071;-80
2022/01/22 04:08:07;;;;;;;159.57;83.82;;;-3.60;99.90;;;;;;5106967;28;20395;-80
2022/01/22 04:10:35;;;;;;;162.77;86.00;;;-3.60;99.90;;;;;;5106119;28;20044;-80
2022/01/22 04:13:05;;;;;;;160.77;82.40;;;-3.50;99.90;;;;;;5111146;28;20048;-79
2022/01/22 04:15:38;;;;;;;169.68;88.35;;;-3.60;99.90;;;;;;5109954;28;20035;-80
2022/01/22 04:26:31;;;;;;;147.43;82.72;;;-3.80;99.90;;;;;;5107640;28;20090;-78
2022/01/22 04:28:59;;;;;;;154.18;83.45;;;-3.90;99.90;;;;;;5103851;28;20051;-81
2022/01/22 04:31:28;;;;;;;163.18;89.70;;;-4.10;99.90;;;;;;5100851;28;20108;-79
2022/01/22 04:33:55;;;;;;;157.35;86.72;;;-4.20;99.90;;;;;;5100413;28;20055;-79
2022/01/22 04:36:23;;;;;;;156.32;86.47;;;-4.30;99.90;;;;;;5089132;28;20128;-79
2022/01/22 04:38:51;;;;;;;143.43;80.90;;;-4.30;99.90;;;;;;5088887;28;20411;-81
2022/01/22 04:41:20;;;;;;;154.15;86.97;;;-4.30;99.90;;;;;;5089583;28;20044;-80
2022/01/22 04:43:49;;;;;;;166.05;89.93;;;-4.30;99.90;;;;;;5106087;28;20041;-81
2022/01/22 04:46:22;;;;;;;154.90;84.78;;;-4.50;99.90;;;;;;5088931;28;20398;-80
2022/01/22 04:49:07;;;;;;;149.45;84.28;;;-4.60;99.90;;;;;;5089795;28;20052;-82
2022/01/22 04:57:07;;;;;;;152.75;82.85;;;-4.40;99.90;;;;;;5101150;28;20063;-80
2022/01/22 04:59:36;;;;;;;141.00;77.43;;;-4.20;1.00;;;;;;5111880;28;20044;-81
2022/01/22 05:02:04;;;;;;;140.02;77.50;;;-4.10;1.00;;;;;;5110701;28;20048;-80
2022/01/22 05:05:03;;;;;;;134.10;73.07;;;-4.00;99.90;;;;;;5110012;28;20052;-81
2022/01/22 05:07:45;;;;;;;135.52;75.05;;;-3.80;99.90;;;;;;5110015;28;20063;-81
2022/01/22 05:10:24;;;;;;;143.15;74.70;;;-3.70;1.00;;;;;;5111306;28;20090;-81
2022/01/22 05:12:53;;;;;;;161.10;80.07;;;-3.70;1.00;;;;;;5117066;28;20044;-79
2022/01/22 05:15:21;;;;;;;156.32;80.47;;;-3.60;1.00;;;;;;5115454;28;20062;-82
2022/01/22 05:17:49;;;;;;;149.18;79.43;;;-3.50;1.00;;;;;;5116420;28;20112;-81
2022/01/22 05:20:28;;;;;;;161.52;82.63;;;-3.50;1.00;;;;;;5117131;28;20058;-82
2022/01/22 05:23:02;;;;;;;150.00;77.82;;;-3.50;1.00;;;;;;5116948;28;20058;-81
2022/01/22 05:25:34;;;;;;;158.77;79.20;;;-3.50;1.00;;;;;;5114018;28;20057;-82
2022/01/22 05:28:20;;;;;;;156.07;81.35;;;-3.60;99.90;;;;;;5114270;28;20047;-81
2022/01/22 05:31:23;;;;;;;165.13;84.55;;;-3.70;99.90;;;;;;5116774;28;20024;-80
2022/01/22 05:37:13;;;;;;;182.55;91.32;;;-3.70;99.90;;;;;;5107562;28;20050;-82
2022/01/22 05:39:41;;;;;;;182.98;97.25;;;-3.60;1.00;;;;;;5107376;28;20066;-81
2022/01/22 05:42:11;;;;;;;169.15;87.97;;;-3.70;1.00;;;;;;5106067;28;20051;-81
2022/01/22 05:44:38;;;;;;;177.13;89.45;;;-3.70;1.00;;;;;;5106183;28;20044;-80
2022/01/22 05:47:06;;;;;;;177.75;90.43;;;-3.80;99.90;;;;;;5106438;28;20052;-82
2022/01/22 05:49:40;;;;;;;172.38;87.50;;;-3.70;1.00;;;;;;5107656;28;20118;-82
2022/01/22 05:52:10;;;;;;;170.75;86.07;;;-3.70;1.00;;;;;;5107128;28;20113;-81
2022/01/22 05:55:07;;;;;;;178.80;87.18;;;-3.60;1.00;;;;;;5106245;28;20468;-80
2022/01/22 06:00:33;;;;;;;187.07;94.10;;;-3.40;1.00;;;;;;5105330;28;20036;-82
2022/01/22 06:03:14;;;;;;;186.95;92.32;;;-3.40;1.00;;;;;;5108387;28;20044;-81
2022/01/22 06:05:41;;;;;;;175.35;85.35;;;-3.40;99.90;;;;;;5107807;28;20052;-82
2022/01/22 06:08:14;;;;;;;172.15;86.43;;;-3.40;1.00;;;;;;5109605;28;20067;-82
2022/01/22 06:10:45;;;;;;;164.57;85.18;;;-3.30;1.00;;;;;;5109533;28;20048;-81
2022/01/22 06:13:16;;;;;;;169.85;88.32;;;-3.30;1.00;;;;;;5118609;28;20036;-78
2022/01/22 06:15:43;;;;;;;172.43;89.28;;;-3.30;99.90;;;;;;5116188;28;20092;-80
2022/01/22 06:18:14;;;;;;;193.27;87.70;;;-3.30;99.90;;;;;;5116153;28;20112;-82
2022/01/22 06:20:44;;;;;;;203.70;96.18;;;-3.30;99.90;;;;;;5114319;28;20059;-80
2022/01/22 06:23:12;;;;;;;197.95;92.28;;;-3.30;99.90;;;;;;5110399;28;20051;-80
2022/01/22 06:25:40;;;;;;;179.73;85.57;;;-3.20;99.90;;;;;;5089548;28;20044;-82
2022/01/22 06:28:10;;;;;;;184.20;90.75;;;-3.20;99.90;;;;;;5110220;27;20044;-81
2022/01/22 06:30:37;;;;;;;188.85;91.80;;;-3.10;99.90;;;;;;5111452;27;20085;-80
2022/01/22 06:33:05;;;;;;;259.88;118.45;;;-3.10;99.90;;;;;;5095526;28;20484;-80
2022/01/22 06:35:35;;;;;;;230.18;117.72;;;-3.10;1.00;;;;;;5094295;28;20056;-78
2022/01/22 06:38:06;;;;;;;207.15;102.35;;;-3.10;99.90;;;;;;5101258;28;20055;-79
2022/01/22 06:43:56;;;;;;;187.60;95.38;;;-3.00;1.00;;;;;;5105336;28;20097;-78
2022/01/22 06:46:40;;;;;;;221.30;105.60;;;-3.10;99.90;;;;;;5082585;28;20048;-79
2022/01/22 06:49:27;;;;;;;221.35;103.13;;;-3.10;1.00;;;;;;5088607;28;20172;-80
2022/01/22 06:52:24;;;;;;;312.67;125.85;;;-3.00;1.00;;;;;;5018351;28;20054;-79
2022/01/22 06:54:56;;;;;;;332.38;129.30;;;-3.00;1.00;;;;;;5088542;28;20037;-79
2022/01/22 06:57:24;;;;;;;184.32;92.45;;;-3.00;1.00;;;;;;5102387;28;20049;-79
2022/01/22 06:59:53;;;;;;;248.90;111.88;;;-3.00;1.00;;;;;;5101902;28;20498;-79
2022/01/22 07:02:23;;;;;;;261.25;123.90;;;-3.10;1.00;;;;;;5100212;28;20071;-79
2022/01/22 07:04:51;;;;;;;245.88;114.35;;;-3.10;1.00;;;;;;5088125;28;20383;-79
2022/01/22 07:07:39;;;;;;;189.05;91.57;;;-3.00;1.00;;;;;;5067275;28;20059;-80
2022/01/22 07:10:07;;;;;;;234.05;106.72;;;-2.90;1.00;;;;;;5106289;28;20491;-78
2022/01/22 07:12:35;;;;;;;188.45;93.35;;;-2.80;1.00;;;;;;5112788;28;20126;-80
2022/01/22 07:15:05;;;;;;;221.77;105.50;;;-2.60;1.00;;;;;;5115281;28;20067;-78
2022/01/22 07:17:37;;;;;;;263.67;121.18;;;-2.60;1.00;;;;;;5109759;28;20070;-81
2022/01/22 07:20:15;;;;;;;234.82;109.05;;;-2.50;1.00;;;;;;5108745;28;20126;-80
2022/01/22 07:22:51;;;;;;;233.50;110.32;;;-2.50;1.00;;;;;;5108783;28;20044;-80
2022/01/22 07:25:48;;;;;;;201.90;93.88;;;-2.50;1.00;;;;;;5055449;28;20054;-80
2022/01/22 07:28:28;;;;;;;186.30;89.13;;;-2.40;1.00;;;;;;5087944;28;20048;-83
2022/01/22 07:30:59;;;;;;;200.90;98.43;;;-2.30;1.00;;;;;;5098792;28;20040;-81
2022/01/22 07:33:28;;;;;;;187.07;86.15;;;-2.30;1.00;;;;;;5083932;28;20045;-81
2022/01/22 07:35:56;;;;;;;176.68;86.05;;;-2.30;1.00;;;;;;5082244;28;20048;-80
2022/01/22 07:38:23;;;;;;;145.25;72.30;;;-2.30;1.00;;;;;;5083583;28;20047;-80
2022/01/22 07:40:51;;;;;;;170.25;83.53;;;-2.20;1.00;;;;;;5088455;28;20044;-81
2022/01/22 07:43:27;;;;;;;223.32;107.13;;;-2.00;1.00;;;;;;5103253;28;20040;-81
2022/01/22 07:46:14;;;;;;;;;;;-1.80;1.00;;;;;;5106462;28;20109;-81
2022/01/22 07:48:50;;;;;;;215.07;105.20;;;-1.70;1.00;;;;;;5107590;28;19983;-82
2022/01/22 07:51:35;;;;;;;199.77;97.88;;;-1.50;1.00;;;;;;5105430;28;20068;-80
2022/01/22 07:54:08;;;;;;;184.18;89.38;;;-1.30;1.00;;;;;;5103779;28;20074;-79
2022/01/22 07:56:37;;;;;;;171.27;86.57;;;-1.20;1.00;;;;;;5102545;28;20047;-78
2022/01/22 07:59:04;;;;;;;158.70;79.28;;;-1.10;1.00;;;;;;5109480;28;20048;-80
2022/01/22 08:01:38;;;;;;;176.10;84.00;;;-1.00;1.00;;;;;;5096072;28;20064;-80
2022/01/22 08:04:24;;;;;;;163.93;79.80;;;-0.90;1.00;;;;;;5113435;28;20040;-80
2022/01/22 08:07:11;;;;;;;143.90;67.18;;;-0.80;1.00;;;;;;5112680;28;20055;-79
2022/01/22 08:09:58;;;;;;;129.73;62.72;;;-0.70;1.00;;;;;;5110114;28;20529;-79
2022/01/22 08:12:50;;;;;;;116.10;55.78;;;-0.60;1.00;;;;;;5103751;28;20112;-81
2022/01/22 08:15:19;;;;;;;124.30;62.67;;;-0.70;1.00;;;;;;5089370;28;20064;-79
2022/01/22 08:17:48;;;;;;;137.07;66.97;;;-0.70;1.00;;;;;;5086024;28;20053;-80
2022/01/22 08:20:21;;;;;;;194.85;102.68;;;-0.70;1.00;;;;;;5087451;28;20048;-80
2022/01/22 08:22:52;;;;;;;264.58;134.57;;;-0.60;1.00;;;;;;5094545;28;20526;-80
2022/01/22 08:25:41;;;;;;;261.67;135.65;;;-0.60;1.00;;;;;;5090032;28;20173;-79
2022/01/22 08:31:18;;;;;;;250.50;130.18;;;-0.60;1.00;;;;;;5086320;28;20050;-81
2022/01/22 08:36:33;;;;;;;223.43;114.95;;;-0.40;1.00;;;;;;5113209;28;20044;-80
2022/01/22 08:39:02;;;;;;;199.80;105.20;;;-0.20;1.00;;;;;;5119910;28;20031;-79
2022/01/22 08:41:30;;;;;;;209.10;106.03;;;-0.20;1.00;;;;;;5113547;28;20503;-77
2022/01/22 08:43:59;;;;;;;173.77;89.95;;;-0.10;1.00;;;;;;5101729;28;20353;-80
2022/01/22 08:46:27;;;;;;;161.05;82.65;;;0.00;1.00;;;;;;5099494;28;20039;-80
2022/01/22 08:48:56;;;;;;;180.50;86.15;;;0.00;1.00;;;;;;5086660;28;20048;-79
2022/01/22 08:51:27;;;;;;;190.68;88.70;;;0.10;1.00;;;;;;5098395;28;20036;-79
2022/01/22 08:53:55;;;;;;;183.23;85.43;;;0.10;1.00;;;;;;5102709;28;20039;-79
2022/01/22 08:56:23;;;;;;;179.30;83.50;;;-0.10;1.00;;;;;;5101685;28;20393;-78
2022/01/22 08:58:51;;;;;;;184.25;82.53;;;-0.10;1.00;;;;;;5104033;28;20063;-81
2022/01/22 09:01:24;;;;;;;178.32;82.47;;;-0.10;1.00;;;;;;5094499;28;20036;-82
2022/01/22 09:03:57;;;;;;;184.93;84.57;;;0.00;1.00;;;;;;5104922;28;20058;-79
2022/01/22 09:06:36;;;;;;;178.32;82.32;;;0.10;1.00;;;;;;5108497;28;20047;-82
2022/01/22 09:09:19;;;;;;;156.27;78.40;;;0.30;1.00;;;;;;5106742;28;20048;-80
2022/01/22 09:12:04;;;;;;;159.45;77.68;;;0.40;1.00;;;;;;5105822;28;20044;-81
2022/01/22 09:14:39;;;;;;;156.75;75.57;;;0.60;1.00;;;;;;5099248;28;20116;-80
2022/01/22 09:17:07;;;;;;;162.05;78.65;;;0.70;1.00;;;;;;5097052;28;20412;-78
2022/01/22 09:19:36;;;;;;;164.23;79.47;;;0.90;1.00;;;;;;5116358;28;20036;-81
2022/01/22 09:22:13;;;;;;;164.82;77.93;;;1.00;1.00;;;;;;5117895;28;20042;-83
2022/01/22 09:24:41;;;;;;;166.75;83.05;;;1.10;1.00;;;;;;5115033;28;20040;-83
2022/01/22 09:27:13;;;;;;;161.70;80.00;;;1.10;1.00;;;;;;5108014;28;20060;-81
2022/01/22 09:29:40;;;;;;;156.55;76.38;;;1.10;1.00;;;;;;5107902;28;20114;-83
2022/01/22 09:32:08;;;;;;;160.73;77.93;;;1.00;1.00;;;;;;5111394;28;20127;-83
2022/01/22 09:35:00;;;;;;;161.85;78.65;;;1.10;1.00;;;;;;5085743;28;20044;-84
2022/01/22 09:37:46;;;;;;;146.52;72.07;;;1.30;1.00;;;;;;5102084;28;20046;-82
2022/01/22 09:40:32;;;;;;;157.75;75.55;;;1.60;1.00;;;;;;5084285;28;20074;-81
2022/01/22 09:43:13;;;;;;;157.50;77.75;;;1.70;1.00;;;;;;5084239;28;20044;-83
2022/01/22 09:46:06;;;;;;;162.02;74.82;;;1.70;12.30;;;;;;5081845;28;20400;-82
2022/01/22 09:48:53;;;;;;;154.25;75.07;;;1.70;13.20;;;;;;5092922;28;20047;-83
2022/01/22 09:51:57;;;;;;;133.98;67.57;;;1.80;17.80;;;;;;5032468;28;20045;-83
2022/01/22 09:54:24;;;;;;;93.50;49.67;;;2.00;19.40;;;;;;5083114;28;20122;-82
2022/01/22 09:57:20;;;;;;;91.32;45.22;;;2.10;19.90;;;;;;5068263;28;20049;-84
2022/01/22 10:00:07;;;;;;;86.78;44.25;;;2.20;11.30;;;;;;5083249;28;20056;-84
2022/01/22 10:02:49;;;;;;;94.57;47.75;;;2.60;15.00;;;;;;5081126;28;20534;-83
2022/01/22 10:05:36;;;;;;;92.05;49.60;;;2.90;32.20;;;;;;5080549;28;20048;-83
2022/01/22 10:08:36;;;;;;;108.55;57.92;;;2.80;38.70;;;;;;5048924;28;20483;-84
2022/01/22 10:11:36;;;;;;;98.45;50.72;;;2.50;34.50;;;;;;5061335;28;20040;-86
2022/01/22 10:14:07;;;;;;;93.50;50.38;;;2.50;23.90;;;;;;5092154;28;20127;-86
2022/01/22 10:16:35;;;;;;;96.97;52.65;;;2.60;35.70;;;;;;5087897;28;20036;-86
2022/01/22 10:19:16;;;;;;;93.68;50.13;;;2.60;27.50;;;;;;5087861;28;20095;-87
2022/01/22 10:21:46;;;;;;;77.30;38.80;;;2.50;22.30;;;;;;5085554;28;20045;-86
2022/01/22 10:24:33;;;;;;;58.88;32.03;;;2.50;5.70;;;;;;5084684;28;20037;-85
2022/01/22 10:27:33;;;;;;;52.13;28.17;;;2.40;1.00;;;;;;5093525;28;20048;-84
2022/01/22 10:30:04;;;;;;;50.28;27.75;;;2.20;1.00;;;;;;5043555;28;20069;-86
2022/01/22 10:32:43;;;;;;;56.22;29.80;;;2.00;1.00;;;;;;5042345;28;20068;-86
2022/01/22 10:35:32;;;;;;;55.38;30.55;;;2.00;1.00;;;;;;5027309;28;20061;-85
2022/01/22 10:38:43;;;;;;;60.00;31.52;;;2.00;1.00;;;;;;4974157;29;20067;-85
2022/01/22 10:41:12;;;;;;;55.95;30.55;;;2.00;1.00;;;;;;5026939;28;20077;-83
2022/01/22 10:43:45;;;;;;;62.13;33.38;;;2.00;1.00;;;;;;5056342;28;20129;-85
2022/01/22 10:46:19;;;;;;;62.05;30.88;;;2.00;1.00;;;;;;5056323;28;20035;-84
2022/01/22 10:49:00;;;;;;;51.77;29.13;;;2.00;1.00;;;;;;5041204;28;20045;-85
2022/01/22 10:51:29;;;;;;;54.88;28.98;;;1.90;1.00;;;;;;5054293;28;20038;-83
2022/01/22 10:53:59;;;;;;;52.13;28.98;;;1.90;1.00;;;;;;5037746;28;20025;-81
2022/01/22 10:56:31;;;;;;;56.08;30.33;;;1.90;1.00;;;;;;5044575;28;20046;-86
2022/01/22 10:59:00;;;;;;;47.70;26.65;;;1.80;1.00;;;;;;5023955;28;20045;-85
2022/01/22 11:01:31;;;;;;;50.55;27.30;;;1.90;1.00;;;;;;5039959;28;20397;-86
2022/01/22 11:04:04;;;;;;;55.03;29.15;;;2.00;1.00;;;;;;5057938;28;20089;-87
2022/01/22 11:06:32;;;;;;;55.72;28.73;;;2.20;1.00;;;;;;5101900;28;20043;-88
2022/01/22 11:09:00;;;;;;;48.63;28.25;;;2.30;1.00;;;;;;5100881;28;20139;-88
2022/01/22 11:11:31;;;;;;;47.33;27.92;;;2.20;1.00;;;;;;5098843;28;20055;-84
2022/01/22 11:13:59;;;;;;;50.55;27.70;;;2.20;1.00;;;;;;5117744;28;20075;-86
2022/01/22 11:16:29;;;;;;;60.28;32.28;;;2.20;1.00;;;;;;5101361;28;20052;-85
2022/01/22 11:18:58;;;;;;;56.42;32.28;;;2.10;1.00;;;;;;5101460;28;20093;-85
2022/01/22 11:21:26;;;;;;;73.10;38.55;;;2.10;1.00;;;;;;5099321;28;20142;-86
2022/01/22 11:23:54;;;;;;;59.97;34.75;;;2.00;1.00;;;;;;5101032;28;20055;-86
2022/01/22 11:26:22;;;;;;;59.85;32.83;;;2.00;1.00;;;;;;5099793;28;20097;-85
2022/01/22 11:28:53;;;;;;;57.92;31.05;;;2.10;1.00;;;;;;5098219;28;20624;-85
2022/01/22 11:31:24;;;;;;;61.42;33.05;;;2.20;1.00;;;;;;5101253;28;20039;-84
2022/01/22 11:33:54;;;;;;;61.88;35.00;;;2.20;1.00;;;;;;5102914;28;20072;-86
2022/01/22 11:36:26;;;;;;;62.63;34.45;;;2.10;1.00;;;;;;5100420;28;20055;-84
2022/01/22 11:38:56;;;;;;;61.50;33.65;;;2.10;1.00;;;;;;5103914;28;20076;-85
2022/01/22 11:41:24;;;;;;;59.42;33.70;;;2.00;1.00;;;;;;5104979;28;20590;-85
2022/01/22 11:44:08;;;;;;;59.47;34.05;;;2.00;99.90;;;;;;5087740;28;20438;-86
2022/01/22 11:46:40;;;;;;;58.72;33.45;;;2.00;99.90;;;;;;5085477;28;20032;-85
2022/01/22 11:49:13;;;;;;;68.28;36.60;;;2.00;99.90;;;;;;5098954;28;20067;-86
2022/01/22 11:51:41;;;;;;;70.72;39.42;;;1.90;1.00;;;;;;5113084;28;20068;-85
2022/01/22 11:54:09;;;;;;;73.70;40.13;;;1.80;99.90;;;;;;5099490;28;20105;-86
2022/01/22 11:56:48;;;;;;;72.10;38.65;;;1.80;1.00;;;;;;5097281;28;20044;-87
2022/01/22 11:59:20;;;;;;;77.95;41.25;;;1.80;1.00;;;;;;5080599;28;20561;-85
2022/01/22 12:02:02;;;;;;;83.97;44.05;;;1.70;99.90;;;;;;5082915;28;20044;-83
2022/01/22 12:04:46;;;;;;;86.80;47.58;;;1.70;1.00;;;;;;5101161;28;20036;-85
2022/01/22 12:07:19;;;;;;;80.05;43.08;;;1.70;99.90;;;;;;5100672;28;20036;-87
2022/01/22 12:10:16;;;;;;;66.60;37.75;;;1.70;15.60;;;;;;5096923;28;20166;-85
2022/01/22 12:15:53;;;;;;;70.20;37.53;;;1.90;99.90;;;;;;5098781;28;20036;-85
2022/01/22 12:18:33;;;;;;;65.70;34.45;;;1.80;1.00;;;;;;5094391;28;20402;-84
2022/01/22 12:23:51;;;;;;;51.15;28.38;;;2.00;99.90;;;;;;5098344;28;20051;-87
2022/01/22 12:26:47;;;;;;;47.97;28.60;;;2.00;99.90;;;;;;5102616;28;20040;-85
2022/01/22 12:29:34;;;;;;;50.75;27.92;;;2.00;99.90;;;;;;5086724;28;20040;-86
2022/01/22 12:32:31;;;;;;;55.47;29.63;;;2.00;99.90;;;;;;5103338;28;20055;-85
2022/01/22 12:35:04;;;;;;;59.20;31.55;;;2.00;99.90;;;;;;5088121;28;20070;-82
2022/01/22 12:37:32;;;;;;;64.47;31.95;;;2.00;99.90;;;;;;5103924;28;20080;-84
2022/01/22 12:40:05;;;;;;;63.70;32.95;;;2.00;5.20;;;;;;5107116;28;20070;-84
2022/01/22 12:43:07;;;;;;;73.03;37.38;;;2.00;99.90;;;;;;5108006;28;20048;-82
2022/01/22 12:45:37;;;;;;;68.32;36.55;;;2.10;1.00;;;;;;5076218;28;20529;-82
2022/01/22 12:48:06;;;;;;;68.90;35.80;;;2.10;99.90;;;;;;5096369;28;20090;-81
2022/01/22 12:50:37;;;;;;;53.78;31.10;;;2.10;99.90;;;;;;5089511;28;20139;-81
2022/01/22 12:53:19;;;;;;;53.75;30.13;;;2.20;51.80;;;;;;5090007;28;20143;-80
2022/01/22 12:58:38;;;;;;;51.63;29.05;;;2.40;99.90;;;;;;5089499;28;20072;-82
2022/01/22 13:01:15;;;;;;;42.53;25.83;;;2.40;99.90;;;;;;5089160;28;20071;-83
2022/01/22 13:03:46;;;;;;;40.75;23.63;;;2.50;1.00;;;;;;5089850;28;20050;-83
2022/01/22 13:06:14;;;;;;;42.33;23.75;;;2.50;1.00;;;;;;5098862;28;20049;-81
2022/01/22 13:09:00;;;;;;;42.20;24.88;;;2.50;99.90;;;;;;5091330;28;20067;-83
2022/01/22 13:11:44;;;;;;;42.47;26.05;;;2.70;1.00;;;;;;5108715;28;20051;-83
2022/01/22 13:14:12;;;;;;;43.78;25.05;;;2.80;1.00;;;;;;5106879;28;20052;-82
2022/01/22 13:16:48;;;;;;;47.72;26.20;;;2.90;1.00;;;;;;5103750;28;20066;-86
2022/01/22 13:19:18;;;;;;;53.75;28.30;;;3.00;1.00;;;;;;5102592;28;20040;-83
2022/01/22 13:21:54;;;;;;;49.72;26.58;;;3.30;1.00;;;;;;5104992;28;20040;-83
2022/01/22 13:24:29;;;;;;;50.22;26.77;;;3.60;1.00;;;;;;5105676;28;20302;-81
2022/01/22 13:27:00;;;;;;;48.70;27.60;;;3.80;1.00;;;;;;5107059;28;20052;-83
2022/01/22 13:29:30;;;;;;;42.70;24.75;;;3.80;1.00;;;;;;5109883;28;20103;-83
2022/01/22 13:32:15;;;;;;;43.13;24.73;;;3.90;1.00;;;;;;5108255;28;20040;-83
2022/01/22 13:35:08;;;;;;;39.60;23.37;;;4.00;1.00;;;;;;5101046;28;20479;-83
2022/01/22 13:49:14;;;;;;;47.80;27.13;;;4.40;8.10;;;;;;5108939;28;20036;-84
2022/01/22 13:51:45;;;;;;;47.40;26.25;;;4.50;1.00;;;;;;5107719;28;20082;-83
2022/01/22 13:54:13;;;;;;;34.15;18.60;;;4.40;1.00;;;;;;5109149;28;20064;-85
2022/01/22 13:56:48;;;;;;;24.55;13.48;;;4.10;1.00;;;;;;5108061;28;20407;-84
2022/01/22 13:59:18;;;;;;;21.42;13.10;;;3.90;1.00;;;;;;5087424;28;20048;-85
2022/01/22 14:02:02;;;;;;;19.63;10.77;;;3.80;11.50;;;;;;5080373;28;20049;-83
2022/01/22 14:04:39;;;;;;;18.65;10.68;;;3.70;1.00;;;;;;5096404;28;20052;-83
2022/01/22 14:07:17;;;;;;;17.67;10.05;;;3.70;1.00;;;;;;5098633;28;20055;-84
2022/01/22 14:10:00;;;;;;;16.52;9.85;;;3.70;1.00;;;;;;5113017;28;20075;-82
2022/01/22 14:12:32;;;;;;;18.23;10.85;;;3.80;1.00;;;;;;5117574;28;20024;-83
2022/01/22 14:15:03;;;;;;;27.08;14.25;;;4.00;14.40;;;;;;5107998;28;20486;-82
2022/01/22 14:17:39;;;;;;;21.00;12.95;;;4.20;19.10;;;;;;5105302;28;20491;-83
2022/01/22 14:20:09;;;;;;;22.20;12.57;;;4.10;25.90;;;;;;5104745;28;20056;-82
2022/01/22 14:23:04;;;;;;;28.60;15.75;;;4.10;27.10;;;;;;5106716;28;20058;-82
2022/01/22 14:25:33;;;;;;;16.15;9.73;;;4.10;36.80;;;;;;5104121;28;20048;-83